createdAt,value
2023-04-22T00:00:15.399Z,7.03
2023-04-22T00:02:42.392Z,5.90
2023-04-22T00:05:13.939Z,5.82
2023-04-22T00:07:43.645Z,9.98
2023-04-22T00:10:13.468Z,5.95
2023-04-22T00:12:40.528Z,7.15
2023-04-22T00:15:08.398Z,6.75
2023-04-22T00:17:35.174Z,8.68
2023-04-22T00:20:01.954Z,6.25
2023-04-22T00:22:28.722Z,6.40
2023-04-22T00:24:55.486Z,7.82
2023-04-22T00:27:22.276Z,6.35
2023-04-22T00:29:49.274Z,6.40
2023-04-22T00:32:16.000Z,7.25
2023-04-22T00:34:42.774Z,6.55
2023-04-22T00:37:09.588Z,7.22
2023-04-22T00:39:39.322Z,7.45
2023-04-22T00:42:08.051Z,7.55
2023-04-22T00:44:36.549Z,8.55
2023-04-22T00:47:04.403Z,6.43
2023-04-22T00:49:33.652Z,5.93
2023-04-22T00:52:00.339Z,6.47
2023-04-22T00:54:27.126Z,6.57
2023-04-22T00:56:53.914Z,6.23
2023-04-22T00:59:22.390Z,6.22
2023-04-22T01:01:50.223Z,6.80
2023-04-22T01:04:17.973Z,6.15
2023-04-22T01:06:45.832Z,6.45
2023-04-22T01:09:13.416Z,5.57
2023-04-22T01:11:40.936Z,5.50
2023-04-22T01:14:07.698Z,5.43
2023-04-22T01:16:38.917Z,5.70
2023-04-22T01:19:06.472Z,6.60
2023-04-22T01:21:36.007Z,6.07
2023-04-22T01:24:03.199Z,6.37
2023-04-22T01:26:30.074Z,6.00
2023-04-22T01:28:57.105Z,6.97
2023-04-22T01:31:25.411Z,7.83
2023-04-22T01:33:52.503Z,7.17
2023-04-22T01:36:19.358Z,7.13
2023-04-22T01:38:46.172Z,6.97
2023-04-22T01:41:14.225Z,6.17
2023-04-22T01:43:42.556Z,6.77
2023-04-22T01:46:09.638Z,6.57
2023-04-22T01:48:38.173Z,6.77
2023-04-22T01:51:05.183Z,5.23
2023-04-22T01:53:31.964Z,6.70
2023-04-22T01:56:00.112Z,7.10
2023-04-22T01:58:30.010Z,5.70
2023-04-22T02:00:56.914Z,7.20
2023-04-22T02:03:23.837Z,5.13
2023-04-22T02:05:50.744Z,6.43
2023-04-22T02:08:17.520Z,6.60
2023-04-22T02:10:44.351Z,6.37
2023-04-22T02:13:11.114Z,6.83
2023-04-22T02:15:39.288Z,7.13
2023-04-22T02:18:06.362Z,6.63
2023-04-22T02:20:33.120Z,7.77
2023-04-22T02:23:00.588Z,6.33
2023-04-22T02:25:29.076Z,6.53
2023-04-22T02:27:56.357Z,7.63
2023-04-22T02:30:23.153Z,6.47
2023-04-22T02:32:50.040Z,6.37
2023-04-22T02:35:16.854Z,7.20
2023-04-22T02:37:43.612Z,6.30
2023-04-22T02:40:11.260Z,5.87
2023-04-22T02:42:37.998Z,6.37
2023-04-22T02:45:05.652Z,5.63
2023-04-22T02:47:32.346Z,5.63
2023-04-22T02:49:59.058Z,5.93
2023-04-22T02:52:25.803Z,7.20
2023-04-22T02:54:52.536Z,7.53
2023-04-22T02:57:19.303Z,6.70
2023-04-22T02:59:47.397Z,6.80
2023-04-22T03:02:17.017Z,5.33
2023-04-22T03:04:44.701Z,6.40
2023-04-22T03:07:11.718Z,6.00
2023-04-22T03:09:38.726Z,6.07
2023-04-22T03:12:05.777Z,6.30
2023-04-22T03:14:32.624Z,5.53
2023-04-22T03:16:59.493Z,5.93
2023-04-22T03:19:29.026Z,6.30
2023-04-22T03:21:56.507Z,6.60
2023-04-22T03:24:23.326Z,7.60
2023-04-22T03:26:50.047Z,6.17
2023-04-22T03:29:16.780Z,6.53
2023-04-22T03:31:43.594Z,7.33
2023-04-22T03:34:10.468Z,7.20
2023-04-22T03:36:37.238Z,6.80
2023-04-22T03:39:04.134Z,6.63
2023-04-22T03:41:30.992Z,6.23
2023-04-22T03:43:59.604Z,6.50
2023-04-22T03:46:31.085Z,7.60
2023-04-22T03:48:57.844Z,7.00
2023-04-22T03:51:24.635Z,9.30
2023-04-22T03:53:51.395Z,7.90
2023-04-22T03:56:18.226Z,9.77
2023-04-22T03:58:44.985Z,8.63
2023-04-22T04:01:11.789Z,7.27
2023-04-22T04:03:38.805Z,8.50
2023-04-22T04:06:05.848Z,7.07
2023-04-22T04:08:32.626Z,6.83
2023-04-22T04:10:59.395Z,7.70
2023-04-22T04:13:26.467Z,7.30
2023-04-22T04:15:54.721Z,8.63
2023-04-22T04:18:21.565Z,7.33
2023-04-22T04:20:48.449Z,7.93
2023-04-22T04:23:15.250Z,8.33
2023-04-22T04:25:42.750Z,9.33
2023-04-22T04:28:11.963Z,9.07
2023-04-22T04:30:38.860Z,8.30
2023-04-22T04:33:08.448Z,8.13
2023-04-22T04:35:38.074Z,9.17
2023-04-22T04:38:06.139Z,8.40
2023-04-22T04:40:34.491Z,8.43
2023-04-22T04:43:02.824Z,8.37
2023-04-22T04:47:56.781Z,9.87
2023-04-22T04:50:23.873Z,8.27
2023-04-22T04:52:51.612Z,9.00
2023-04-22T04:55:20.832Z,7.40
2023-04-22T04:57:47.739Z,9.70
2023-04-22T05:00:14.904Z,8.50
2023-04-22T05:02:42.321Z,8.33
2023-04-22T05:05:09.856Z,7.80
2023-04-22T05:07:36.634Z,7.20
2023-04-22T05:10:04.262Z,8.00
2023-04-22T05:12:31.391Z,8.97
2023-04-22T05:14:58.188Z,8.60
2023-04-22T05:17:25.074Z,8.10
2023-04-22T05:19:52.911Z,9.37
2023-04-22T05:22:20.038Z,7.77
2023-04-22T05:24:46.780Z,8.07
2023-04-22T05:27:13.737Z,10.10
2023-04-22T05:29:40.909Z,10.97
2023-04-22T05:32:09.538Z,8.97
2023-04-22T05:34:36.424Z,8.30
2023-04-22T05:37:04.141Z,8.63
2023-04-22T05:39:31.057Z,8.27
2023-04-22T05:42:00.218Z,8.77
2023-04-22T05:44:28.976Z,9.47
2023-04-22T05:46:55.793Z,9.90
2023-04-22T05:49:22.527Z,10.03
2023-04-22T05:51:50.623Z,9.23
2023-04-22T05:54:17.441Z,10.03
2023-04-22T05:56:44.668Z,9.37
2023-04-22T05:59:11.512Z,10.13
2023-04-22T06:01:38.303Z,9.90
2023-04-22T06:04:06.476Z,10.10
2023-04-22T06:06:33.987Z,10.93
2023-04-22T06:09:00.781Z,9.40
2023-04-22T06:11:28.359Z,10.47
2023-04-22T06:13:55.307Z,9.73
2023-04-22T06:16:23.249Z,11.80
2023-04-22T06:18:50.136Z,10.00
2023-04-22T06:21:16.931Z,10.60
2023-04-22T06:23:43.879Z,10.53
2023-04-22T06:26:10.886Z,13.03
2023-04-22T06:28:37.720Z,10.90
2023-04-22T06:31:04.573Z,11.93
2023-04-22T06:33:31.487Z,11.87
2023-04-22T06:35:59.788Z,13.47
2023-04-22T06:38:26.535Z,11.80
2023-04-22T06:40:53.342Z,12.93
2023-04-22T06:43:22.250Z,14.05
2023-04-22T06:45:49.342Z,11.63
2023-04-22T06:48:16.310Z,12.82
2023-04-22T06:50:43.174Z,13.37
2023-04-22T06:53:10.039Z,11.30
2023-04-22T06:55:36.997Z,13.97
2023-04-22T06:58:03.896Z,13.00
2023-04-22T07:00:33.374Z,12.93
2023-04-22T07:03:00.096Z,15.32
2023-04-22T07:05:27.170Z,13.70
2023-04-22T07:07:53.949Z,13.30
2023-04-22T07:10:20.854Z,13.27
2023-04-22T07:12:47.668Z,12.20
2023-04-22T07:15:14.451Z,15.80
2023-04-22T07:17:41.272Z,13.85
2023-04-22T07:20:09.710Z,13.32
2023-04-22T07:22:36.512Z,13.75
2023-04-22T07:25:04.351Z,13.23
2023-04-22T07:27:31.062Z,13.35
2023-04-22T07:29:57.896Z,13.00
2023-04-22T07:32:24.696Z,13.60
2023-04-22T07:34:51.563Z,12.27
2023-04-22T07:37:18.290Z,12.82
2023-04-22T07:39:45.461Z,14.85
2023-04-22T07:42:12.790Z,13.05
2023-04-22T07:44:39.791Z,10.48
2023-04-22T07:47:08.548Z,11.63
2023-04-22T07:49:35.420Z,11.05
2023-04-22T07:52:02.236Z,11.93
2023-04-22T07:54:28.971Z,12.27
2023-04-22T07:56:58.267Z,11.95
2023-04-22T07:59:25.596Z,12.13
2023-04-22T08:01:52.447Z,10.52
2023-04-22T08:04:23.626Z,13.07
2023-04-22T08:06:50.679Z,10.48
2023-04-22T08:09:17.484Z,11.23
2023-04-22T08:11:45.304Z,9.93
2023-04-22T08:14:12.068Z,10.27
2023-04-22T08:16:41.839Z,9.65
2023-04-22T08:19:08.570Z,9.45
2023-04-22T08:21:37.263Z,8.82
2023-04-22T08:24:04.395Z,10.32
2023-04-22T08:26:31.222Z,9.20
2023-04-22T08:28:58.028Z,8.73
2023-04-22T08:31:24.941Z,8.27
2023-04-22T08:33:51.914Z,8.73
2023-04-22T08:36:19.576Z,7.55
2023-04-22T08:38:48.325Z,7.40
2023-04-22T08:41:19.259Z,7.10
2023-04-22T08:43:46.830Z,7.15
2023-04-22T08:46:15.589Z,9.20
2023-04-22T08:48:42.456Z,7.82
2023-04-22T08:51:09.303Z,6.88
2023-04-22T08:53:36.162Z,8.40
2023-04-22T08:56:05.360Z,6.90
2023-04-22T08:58:34.696Z,5.60
2023-04-22T09:01:03.513Z,5.90
2023-04-22T09:03:31.669Z,6.05
2023-04-22T09:05:59.783Z,6.43
2023-04-22T09:08:27.287Z,7.30
2023-04-22T09:10:54.464Z,7.28
2023-04-22T09:13:22.960Z,5.57
2023-04-22T09:15:49.656Z,5.65
2023-04-22T09:18:21.178Z,6.15
2023-04-22T09:20:49.788Z,5.57
2023-04-22T09:23:20.859Z,5.43
2023-04-22T09:25:47.862Z,5.45
2023-04-22T09:28:18.886Z,5.93
2023-04-22T09:30:48.078Z,5.45
2023-04-22T09:33:15.621Z,5.15
2023-04-22T09:35:44.112Z,5.68
2023-04-22T09:38:14.582Z,4.30
2023-04-22T09:40:44.971Z,5.10
2023-04-22T09:43:13.011Z,4.70
2023-04-22T09:45:42.668Z,6.45
2023-04-22T09:48:17.250Z,6.95
2023-04-22T09:50:47.539Z,5.65
2023-04-22T09:53:21.198Z,5.57
2023-04-22T09:55:53.241Z,5.72
2023-04-22T09:58:28.141Z,5.60
2023-04-22T10:01:00.171Z,6.43
2023-04-22T10:03:26.950Z,5.47
2023-04-22T10:05:53.704Z,5.25
2023-04-22T10:08:20.515Z,6.22
2023-04-22T10:10:47.477Z,5.95
2023-04-22T10:13:14.254Z,4.97
2023-04-22T10:16:01.456Z,5.45
2023-04-22T10:18:35.322Z,4.57
2023-04-22T10:21:02.706Z,5.68
2023-04-22T10:23:33.130Z,5.53
2023-04-22T10:26:00.316Z,5.45
2023-04-22T10:28:30.703Z,7.97
2023-04-22T10:30:57.571Z,4.97
2023-04-22T10:33:24.296Z,6.43
2023-04-22T10:36:10.553Z,8.10
2023-04-22T10:39:00.813Z,6.70
2023-04-22T10:41:34.794Z,5.20
2023-04-22T10:44:08.052Z,6.28
2023-04-22T10:46:38.034Z,5.93
2023-04-22T10:49:22.778Z,7.05
2023-04-22T10:51:58.905Z,7.43
2023-04-22T10:54:31.361Z,6.13
2023-04-22T10:57:14.792Z,6.72
2023-04-22T11:00:00.530Z,6.43
2023-04-22T11:02:27.496Z,8.75
2023-04-22T11:05:27.509Z,7.25
2023-04-22T11:08:03.521Z,6.97
2023-04-22T11:10:44.089Z,8.55
2023-04-22T11:13:21.248Z,7.60
2023-04-22T11:15:56.383Z,7.53
2023-04-22T11:18:27.388Z,10.30
2023-04-22T11:20:54.583Z,6.63
2023-04-22T11:23:50.174Z,8.30
2023-04-22T11:26:17.108Z,8.05
2023-04-22T11:28:47.888Z,7.20
2023-04-22T11:31:15.834Z,7.78
2023-04-22T11:33:43.578Z,7.22
2023-04-22T11:36:12.206Z,7.40
2023-04-22T11:38:41.512Z,8.25
2023-04-22T11:41:08.350Z,7.68
2023-04-22T11:43:46.224Z,7.18
2023-04-22T11:46:13.098Z,7.85
2023-04-22T11:48:40.022Z,7.82
2023-04-22T11:51:11.565Z,8.18
2023-04-22T11:53:40.016Z,10.75
2023-04-22T11:56:07.097Z,7.75
2023-04-22T11:58:38.535Z,7.97
2023-04-22T12:01:05.745Z,8.25
2023-04-22T12:03:34.703Z,9.10
2023-04-22T12:06:04.500Z,9.07
2023-04-22T12:08:35.530Z,9.80
2023-04-22T12:11:07.969Z,9.32
2023-04-22T12:13:44.214Z,9.55
2023-04-22T12:16:14.797Z,9.68
2023-04-22T12:18:56.254Z,10.68
2023-04-22T12:21:29.601Z,9.30
2023-04-22T12:24:05.957Z,8.82
2023-04-22T12:26:32.852Z,12.20
2023-04-22T12:29:00.940Z,12.00
2023-04-22T12:31:28.102Z,10.00
2023-04-22T12:33:55.941Z,11.27
2023-04-22T12:36:27.621Z,12.27
2023-04-22T12:38:54.484Z,9.85
2023-04-22T12:41:22.975Z,9.65
2023-04-22T12:43:49.856Z,8.82
2023-04-22T12:46:17.072Z,9.93
2023-04-22T12:48:46.105Z,10.35
2023-04-22T12:51:13.081Z,12.02
2023-04-22T12:53:39.870Z,12.20
2023-04-22T12:56:06.739Z,11.45
2023-04-22T12:58:33.542Z,12.40
2023-04-22T13:01:00.257Z,12.52
2023-04-22T13:03:27.568Z,12.38
2023-04-22T13:05:55.230Z,10.27
2023-04-22T13:08:22.084Z,11.13
2023-04-22T13:10:49.391Z,11.52
2023-04-22T13:13:18.917Z,12.98
2023-04-22T13:15:53.595Z,10.82
2023-04-22T13:18:25.542Z,11.82
2023-04-22T13:20:52.391Z,10.60
2023-04-22T13:23:21.465Z,11.30
2023-04-22T13:25:50.031Z,13.05
2023-04-22T13:28:16.836Z,10.57
2023-04-22T13:30:43.700Z,12.10
2023-04-22T13:33:10.577Z,11.10
2023-04-22T13:35:37.399Z,11.00
2023-04-22T13:38:05.853Z,11.05
2023-04-22T13:40:32.630Z,11.00
2023-04-22T13:42:59.419Z,11.73
2023-04-22T13:45:26.259Z,11.68
2023-04-22T13:47:54.461Z,12.70
2023-04-22T13:50:21.548Z,12.45
2023-04-22T13:52:48.331Z,11.43
2023-04-22T13:55:15.199Z,29.50
2023-04-22T13:57:42.226Z,14.75
2023-04-22T14:00:09.761Z,12.80
2023-04-22T14:02:37.187Z,12.43
2023-04-22T14:05:05.955Z,13.02
2023-04-22T14:07:32.847Z,64.43
2023-04-22T14:09:59.611Z,121.03
2023-04-22T14:12:26.880Z,37.20
2023-04-22T14:14:53.788Z,22.58
2023-04-22T14:17:22.073Z,15.15
2023-04-22T14:19:52.735Z,13.95
2023-04-22T14:22:20.558Z,30.33
2023-04-22T14:24:48.752Z,23.08
2023-04-22T14:27:15.545Z,18.85
2023-04-22T14:29:43.844Z,16.13
2023-04-22T14:32:10.809Z,15.80
2023-04-22T14:34:39.145Z,19.17
2023-04-22T14:37:07.124Z,17.65
2023-04-22T14:39:33.858Z,15.45
2023-04-22T14:42:00.621Z,16.45
2023-04-22T14:44:27.393Z,16.60
2023-04-22T14:46:54.094Z,15.20
2023-04-22T14:49:21.011Z,14.57
2023-04-22T14:51:49.214Z,18.00
2023-04-22T14:54:15.973Z,17.08
2023-04-22T14:56:42.803Z,16.63
2023-04-22T14:59:09.547Z,17.23
2023-04-22T15:01:37.102Z,16.05
2023-04-22T15:04:04.055Z,15.75
2023-04-22T15:06:30.968Z,20.10
2023-04-22T15:08:57.770Z,17.27
2023-04-22T15:11:24.576Z,18.23
2023-04-22T15:13:51.585Z,18.38
2023-04-22T15:16:18.432Z,17.35
2023-04-22T15:18:45.179Z,18.67
2023-04-22T15:21:11.980Z,17.98
2023-04-22T15:23:38.753Z,18.67
2023-04-22T15:26:06.160Z,17.63
2023-04-22T15:28:33.524Z,18.15
2023-04-22T15:31:00.941Z,21.48
2023-04-22T15:33:27.750Z,20.25
2023-04-22T15:35:54.796Z,20.58
2023-04-22T15:38:21.610Z,20.92
2023-04-22T15:40:48.398Z,19.52
2023-04-22T15:43:15.149Z,22.38
2023-04-22T15:45:41.996Z,21.58
2023-04-22T15:48:09.558Z,21.73
2023-04-22T15:50:38.876Z,19.58
2023-04-22T15:53:06.772Z,18.98
2023-04-22T15:55:33.545Z,19.98
2023-04-22T15:58:00.747Z,20.85
2023-04-22T16:00:27.543Z,21.75
2023-04-22T16:02:57.134Z,20.85
2023-04-22T16:05:25.098Z,17.40
2023-04-22T16:07:56.948Z,18.48
2023-04-22T16:10:26.175Z,18.33
2023-04-22T16:12:52.954Z,17.80
2023-04-22T16:15:19.739Z,19.70
2023-04-22T16:17:46.530Z,19.17
2023-04-22T16:20:13.385Z,16.40
2023-04-22T16:22:40.254Z,19.15
2023-04-22T16:25:08.336Z,20.55
2023-04-22T16:27:37.935Z,17.95
2023-04-22T16:30:05.650Z,17.20
2023-04-22T16:32:32.532Z,15.68
2023-04-22T16:34:59.514Z,18.80
2023-04-22T16:37:27.524Z,15.25
2023-04-22T16:39:54.442Z,15.55
2023-04-22T16:42:21.248Z,15.65
2023-04-22T16:44:48.061Z,16.35
2023-04-22T16:47:14.788Z,17.40
2023-04-22T16:49:41.911Z,16.95
2023-04-22T16:52:08.884Z,18.08
2023-04-22T16:54:35.659Z,18.33
2023-04-22T16:57:04.762Z,17.23
2023-04-22T16:59:31.607Z,16.63
2023-04-22T17:01:58.712Z,17.67
2023-04-22T17:04:25.773Z,19.83
2023-04-22T17:06:53.014Z,19.55
2023-04-22T17:09:21.519Z,20.52
2023-04-22T17:11:48.440Z,17.88
2023-04-22T17:14:15.274Z,16.73
2023-04-22T17:16:42.130Z,22.33
2023-04-22T17:19:09.039Z,16.67
2023-04-22T17:21:36.754Z,20.45
2023-04-22T17:24:08.052Z,18.30
2023-04-22T17:26:35.039Z,22.75
2023-04-22T17:29:01.872Z,20.77
2023-04-22T17:31:28.941Z,24.02
2023-04-22T17:33:56.371Z,20.88
2023-04-22T17:36:23.924Z,23.88
2023-04-22T17:38:50.722Z,25.20
2023-04-22T17:41:18.737Z,22.58
2023-04-22T17:43:45.771Z,22.08
2023-04-22T17:46:12.613Z,20.77
2023-04-22T17:48:40.025Z,22.20
2023-04-22T17:51:06.964Z,25.67
2023-04-22T17:53:34.401Z,20.95
2023-04-22T17:56:01.202Z,25.85
2023-04-22T17:58:28.016Z,24.88
2023-04-22T18:00:55.072Z,22.35
2023-04-22T18:03:22.027Z,21.70
2023-04-22T18:05:48.964Z,26.95
2023-04-22T18:08:15.884Z,30.17
2023-04-22T18:10:42.614Z,27.63
2023-04-22T18:13:09.449Z,20.20
2023-04-22T18:15:36.154Z,22.27
2023-04-22T18:18:03.027Z,28.48
2023-04-22T18:20:29.965Z,25.55
2023-04-22T18:22:56.802Z,22.58
2023-04-22T18:25:24.258Z,21.83
2023-04-22T18:27:54.868Z,20.92
2023-04-22T18:30:25.296Z,19.88
2023-04-22T18:32:52.464Z,19.58
2023-04-22T18:35:20.044Z,23.50
2023-04-22T18:37:47.362Z,19.05
2023-04-22T18:40:14.371Z,21.38
2023-04-22T18:42:44.514Z,20.65
2023-04-22T18:45:12.135Z,21.83
2023-04-22T18:47:39.082Z,23.35
2023-04-22T18:50:06.649Z,20.25
2023-04-22T18:52:34.104Z,21.13
2023-04-22T18:55:00.887Z,23.23
2023-04-22T18:57:27.674Z,20.98
2023-04-22T18:59:55.007Z,19.38
2023-04-22T19:02:21.898Z,20.05
2023-04-22T19:04:48.975Z,20.00
2023-04-22T19:07:15.925Z,19.60
2023-04-22T19:09:42.646Z,19.15
2023-04-22T19:12:14.570Z,20.95
2023-04-22T19:14:42.072Z,19.45
2023-04-22T19:17:09.299Z,20.13
2023-04-22T19:19:36.072Z,18.20
2023-04-22T19:22:03.937Z,19.58
2023-04-22T19:24:33.699Z,18.42
2023-04-22T19:27:06.858Z,20.25
2023-04-22T19:29:33.650Z,25.80
2023-04-22T19:32:01.723Z,19.75
2023-04-22T19:34:28.682Z,18.90
2023-04-22T19:36:57.925Z,19.85
2023-04-22T19:39:24.833Z,21.23
2023-04-22T19:41:51.731Z,20.85
2023-04-22T19:44:18.927Z,21.20
2023-04-22T19:46:45.761Z,19.58
2023-04-22T19:49:13.277Z,21.60
2023-04-22T19:51:41.823Z,23.65
2023-04-22T19:54:13.212Z,22.40
2023-04-22T19:56:41.317Z,22.70
2023-04-22T19:59:09.041Z,21.48
2023-04-22T20:01:36.332Z,23.20
2023-04-22T20:04:04.483Z,21.88
2023-04-22T20:06:33.653Z,22.23
2023-04-22T20:09:05.040Z,24.92
2023-04-22T20:11:32.916Z,22.20
2023-04-22T20:14:00.851Z,25.60
2023-04-22T20:16:29.391Z,30.70
2023-04-22T20:18:56.344Z,27.38
2023-04-22T20:21:23.891Z,25.80
2023-04-22T20:23:55.703Z,23.70
2023-04-22T20:26:23.026Z,23.58
2023-04-22T20:28:54.583Z,25.13
2023-04-22T20:31:23.258Z,22.70
2023-04-22T20:33:51.650Z,25.63
2023-04-22T20:36:23.999Z,24.33
2023-04-22T20:38:54.725Z,21.38
2023-04-22T20:41:24.380Z,26.80
2023-04-22T20:43:52.473Z,25.05
2023-04-22T20:46:21.364Z,22.88
2023-04-22T20:48:49.476Z,22.88
2023-04-22T20:51:16.251Z,23.05
2023-04-22T20:53:43.318Z,24.52
2023-04-22T20:56:10.230Z,27.83
2023-04-22T20:58:37.056Z,24.40
2023-04-22T21:01:04.004Z,21.58
2023-04-22T21:03:32.195Z,24.67
2023-04-22T21:06:00.531Z,23.23
2023-04-22T21:08:30.549Z,22.35
2023-04-22T21:10:57.704Z,21.15
2023-04-22T21:13:24.850Z,23.40
2023-04-22T21:15:59.208Z,23.50
2023-04-22T21:18:29.531Z,24.50
2023-04-22T21:20:57.417Z,26.27
2023-04-22T21:23:25.861Z,26.63
2023-04-22T21:25:57.066Z,25.10
2023-04-22T21:28:24.694Z,23.05
2023-04-22T21:30:51.834Z,24.02
2023-04-22T21:33:18.575Z,27.38
2023-04-22T21:35:45.806Z,26.15
2023-04-22T21:38:18.959Z,28.90
2023-04-22T21:40:49.126Z,27.25
2023-04-22T21:43:15.925Z,28.15
2023-04-22T21:45:42.692Z,27.83
2023-04-22T21:48:09.422Z,27.23
2023-04-22T21:50:37.818Z,29.98
2023-04-22T21:53:04.725Z,29.02
2023-04-22T21:55:31.876Z,30.83
2023-04-22T21:57:58.618Z,30.42
2023-04-22T22:00:25.404Z,34.33
2023-04-22T22:02:53.677Z,35.97
2023-04-22T22:05:20.706Z,31.85
2023-04-22T22:07:48.793Z,34.23
2023-04-22T22:10:19.508Z,38.07
2023-04-22T22:12:47.339Z,51.17
2023-04-22T22:15:16.398Z,35.77
2023-04-22T22:17:46.002Z,34.53
2023-04-22T22:20:20.202Z,37.90
2023-04-22T22:22:50.127Z,36.20
2023-04-22T22:25:17.226Z,37.63
2023-04-22T22:27:46.683Z,37.03
2023-04-22T22:30:14.462Z,38.72
2023-04-22T22:32:41.564Z,35.72
2023-04-22T22:35:09.153Z,33.55
2023-04-22T22:37:36.817Z,38.13
2023-04-22T22:40:04.732Z,36.83
2023-04-22T22:42:31.580Z,38.45
2023-04-22T22:44:58.483Z,37.67
2023-04-22T22:47:26.014Z,37.45
2023-04-22T22:49:53.510Z,34.03
2023-04-22T22:52:20.404Z,34.80
2023-04-22T22:54:50.189Z,35.77
2023-04-22T22:57:16.945Z,37.92
2023-04-22T22:59:43.638Z,35.63
2023-04-22T23:02:11.048Z,35.83
2023-04-22T23:04:39.288Z,37.70
2023-04-22T23:07:08.925Z,36.97
2023-04-22T23:09:35.743Z,35.57
2023-04-22T23:12:02.662Z,38.00
2023-04-22T23:14:29.984Z,39.72
2023-04-22T23:16:56.765Z,35.20
2023-04-22T23:19:24.268Z,36.75
2023-04-22T23:21:53.835Z,38.17
2023-04-22T23:24:21.493Z,37.43
2023-04-22T23:26:49.841Z,40.13
2023-04-22T23:29:17.160Z,38.03
2023-04-22T23:31:45.261Z,38.87
2023-04-22T23:34:14.984Z,40.00
2023-04-22T23:36:42.977Z,40.07
2023-04-22T23:39:09.762Z,42.90
2023-04-22T23:41:37.350Z,42.87
2023-04-22T23:44:04.165Z,41.47
2023-04-22T23:46:30.984Z,44.47
2023-04-22T23:48:59.175Z,42.63
2023-04-22T23:51:26.436Z,42.43
2023-04-22T23:53:53.169Z,42.40
2023-04-22T23:56:22.761Z,47.07
2023-04-22T23:58:51.705Z,44.83
